createdAt,value
2019-01-05T00:02:15.905Z,102703.78
2019-01-05T00:04:55.054Z,102702.20
2019-01-05T00:07:28.101Z,102695.41
2019-01-05T00:10:07.131Z,102701.50
2019-01-05T00:12:42.856Z,102699.73
2019-01-05T00:15:13.030Z,102692.97
2019-01-05T00:17:55.655Z,102690.68
2019-01-05T00:20:42.545Z,102686.83
2019-01-05T00:23:22.253Z,102679.56
2019-01-05T00:25:52.436Z,102691.62
2019-01-05T00:28:39.622Z,102684.89
2019-01-05T00:31:09.826Z,102674.59
2019-01-05T00:33:59.555Z,102665.16
2019-01-05T00:36:36.633Z,102661.27
2019-01-05T00:39:11.297Z,102660.87
2019-01-05T00:41:42.932Z,102649.61
2019-01-05T00:44:13.151Z,102662.10
2019-01-05T00:47:03.289Z,102660.80
2019-01-05T00:49:50.969Z,102661.74
2019-01-05T00:52:39.990Z,102663.94
2019-01-05T00:55:28.833Z,102655.27
2019-01-05T00:58:16.910Z,102655.16
2019-01-05T01:00:47.244Z,102651.05
2019-01-05T01:03:35.671Z,102652.38
2019-01-05T01:06:21.943Z,102655.16
2019-01-05T01:09:08.800Z,102654.80
2019-01-05T01:11:41.945Z,102656.98
2019-01-05T01:14:21.182Z,102665.31
2019-01-05T01:17:07.808Z,102660.63
2019-01-05T01:19:44.109Z,102658.65
2019-01-05T01:22:14.500Z,102664.70
2019-01-05T01:24:50.714Z,102668.59
2019-01-05T01:27:30.474Z,102665.23
2019-01-05T01:30:09.899Z,102669.30
2019-01-05T01:32:45.784Z,102668.59
2019-01-05T01:35:18.674Z,102668.95
2019-01-05T01:38:17.552Z,102663.94
2019-01-05T01:41:04.219Z,102666.64
2019-01-05T01:43:34.371Z,102665.73
2019-01-05T01:46:08.103Z,102655.87
2019-01-05T01:48:38.639Z,102658.46
2019-01-05T01:51:10.294Z,102652.84
2019-01-05T01:53:58.722Z,102654.71
2019-01-05T01:56:39.129Z,102653.48
2019-01-05T01:59:14.942Z,102657.45
2019-01-05T02:01:48.788Z,102648.00
2019-01-05T02:04:19.403Z,102643.28
2019-01-05T02:07:07.708Z,102638.92
2019-01-05T02:09:39.698Z,102634.14
2019-01-05T02:12:28.987Z,102619.94
2019-01-05T02:15:13.767Z,102627.98
2019-01-05T02:17:44.916Z,102619.59
2019-01-05T02:20:36.066Z,102621.79
2019-01-05T02:23:40.714Z,102608.85
2019-01-05T02:26:22.742Z,102605.93
2019-01-05T02:29:38.448Z,102607.73
2019-01-05T02:32:36.619Z,102608.73
2019-01-05T02:35:38.616Z,102602.71
2019-01-05T02:38:20.544Z,102597.59
2019-01-05T02:41:21.526Z,102592.87
2019-01-05T02:44:15.904Z,102588.55
2019-01-05T02:47:13.892Z,102580.66
2019-01-05T02:50:09.313Z,102586.02
2019-01-05T02:53:10.915Z,102581.23
2019-01-05T02:56:06.408Z,102569.63
2019-01-05T02:58:56.821Z,102563.97
2019-01-05T03:01:50.678Z,102559.44
2019-01-05T03:04:52.452Z,102562.13
2019-01-05T03:07:49.262Z,102561.30
2019-01-05T03:11:04.733Z,102553.19
2019-01-05T03:14:06.823Z,102543.28
2019-01-05T03:17:17.916Z,102540.31
2019-01-05T03:19:59.973Z,102542.14
2019-01-05T03:22:52.573Z,102543.54
2019-01-05T03:25:46.584Z,102533.76
2019-01-05T03:28:43.422Z,102530.49
2019-01-05T03:31:55.828Z,102526.20
2019-01-05T03:34:48.846Z,102542.80
2019-01-05T03:37:53.613Z,102535.31
2019-01-05T03:40:32.187Z,102524.84
2019-01-05T03:43:31.127Z,102518.72
2019-01-05T03:46:49.953Z,102511.86
2019-01-05T03:49:40.850Z,102507.20
2019-01-05T03:52:54.714Z,102500.28
2019-01-05T03:55:54.257Z,102498.42
2019-01-05T03:59:02.015Z,102493.53
2019-01-05T04:02:06.537Z,102494.00
2019-01-05T04:05:14.344Z,102491.77
2019-01-05T04:08:19.138Z,102487.88
2019-01-05T04:11:13.551Z,102489.70
2019-01-05T04:14:01.354Z,102484.61
2019-01-05T04:16:57.316Z,102479.02
2019-01-05T04:20:16.171Z,102478.52
2019-01-05T04:23:31.753Z,102475.44
2019-01-05T04:26:22.304Z,102475.44
2019-01-05T04:29:28.827Z,102469.34
2019-01-05T04:32:18.026Z,102471.94
2019-01-05T04:35:23.057Z,102466.45
2019-01-05T04:38:28.750Z,102463.95
2019-01-05T04:41:30.547Z,102456.59
2019-01-05T04:44:24.030Z,102449.64
2019-01-05T04:47:30.898Z,102463.11
2019-01-05T04:50:06.868Z,102460.20
2019-01-05T04:53:08.594Z,102457.21
2019-01-05T04:56:08.766Z,102456.78
2019-01-05T04:59:02.556Z,102450.29
2019-01-05T05:01:47.654Z,102450.35
2019-01-05T05:04:57.396Z,102445.31
2019-01-05T05:07:49.853Z,102437.16
2019-01-05T05:10:37.916Z,102437.30
2019-01-05T05:13:46.619Z,102426.02
2019-01-05T05:16:48.852Z,102421.67
2019-01-05T05:19:33.911Z,102416.54
2019-01-05T05:22:40.461Z,102407.91
2019-01-05T05:25:48.428Z,102415.84
2019-01-05T05:28:46.683Z,102415.53
2019-01-05T05:31:56.091Z,102416.92
2019-01-05T05:35:00.508Z,102419.54
2019-01-05T05:38:08.132Z,102429.62
2019-01-05T05:41:00.787Z,102420.59
2019-01-05T05:44:15.758Z,102416.75
2019-01-05T05:47:25.236Z,102415.16
2019-01-05T05:50:24.029Z,102421.72
2019-01-05T05:53:36.733Z,102422.26
2019-01-05T05:56:27.776Z,102426.70
2019-01-05T05:59:24.487Z,102422.55
2019-01-05T06:02:03.345Z,102428.66
2019-01-05T06:05:09.872Z,102429.13
2019-01-05T06:08:13.332Z,102432.27
2019-01-05T06:11:04.231Z,102435.38
2019-01-05T06:14:06.004Z,102431.08
2019-01-05T06:17:08.897Z,102431.11
2019-01-05T06:20:00.046Z,102431.25
2019-01-05T06:23:08.990Z,102433.01
2019-01-05T06:26:10.640Z,102440.88
2019-01-05T06:29:08.912Z,102441.38
2019-01-05T06:32:04.490Z,102441.02
2019-01-05T06:35:01.314Z,102438.94
2019-01-05T06:37:52.406Z,102442.00
2019-01-05T06:41:07.825Z,102446.44
2019-01-05T06:43:49.765Z,102445.14
2019-01-05T06:46:25.842Z,102448.64
2019-01-05T06:49:28.736Z,102438.23
2019-01-05T06:52:25.489Z,102435.64
2019-01-05T06:55:19.968Z,102442.59
2019-01-05T06:58:10.961Z,102435.70
2019-01-05T07:01:12.361Z,102443.95
2019-01-05T07:04:13.700Z,102451.43
2019-01-05T07:07:01.630Z,102437.54
2019-01-05T07:10:08.251Z,102445.88
2019-01-05T07:13:18.649Z,102450.23
2019-01-05T07:16:06.831Z,102453.73
2019-01-05T07:18:59.072Z,102441.49
2019-01-05T07:22:08.739Z,102457.58
2019-01-05T07:25:08.602Z,102461.02
2019-01-05T07:28:17.955Z,102459.77
2019-01-05T07:31:06.194Z,102457.55
2019-01-05T07:34:21.273Z,102458.52
2019-01-05T07:37:18.845Z,102454.52
2019-01-05T07:40:36.869Z,102456.71
2019-01-05T07:43:34.323Z,102459.31
2019-01-05T07:46:42.048Z,102460.15
2019-01-05T07:49:59.739Z,102459.69
2019-01-05T07:52:53.175Z,102459.33
2019-01-05T07:56:07.387Z,102453.03
2019-01-05T07:59:15.061Z,102477.78
2019-01-05T08:02:10.945Z,102455.17
2019-01-05T08:05:09.252Z,102472.14
2019-01-05T08:07:54.313Z,102469.63
2019-01-05T08:11:14.367Z,102470.14
2019-01-05T08:14:02.262Z,102470.20
2019-01-05T08:16:54.593Z,102468.45
2019-01-05T08:19:44.359Z,102466.18
2019-01-05T08:23:02.752Z,102460.04
2019-01-05T08:26:07.637Z,102463.42
2019-01-05T08:29:01.906Z,102468.25
2019-01-05T08:31:37.745Z,102476.09
2019-01-05T08:35:01.957Z,102470.46
2019-01-05T08:38:27.915Z,102480.48
2019-01-05T08:41:34.368Z,102476.56
2019-01-05T08:44:30.230Z,102477.41
2019-01-05T08:47:21.222Z,102480.33
2019-01-05T08:50:13.781Z,102478.50
2019-01-05T08:53:15.344Z,102485.84
2019-01-05T08:56:07.976Z,102501.77
2019-01-05T08:58:46.338Z,102491.72
2019-01-05T09:01:46.472Z,102490.77
2019-01-05T09:04:40.390Z,102491.83
2019-01-05T09:07:34.564Z,102492.41
2019-01-05T09:10:37.577Z,102489.42
2019-01-05T09:13:19.534Z,102495.63
2019-01-05T09:16:41.222Z,102489.58
2019-01-05T09:19:35.614Z,102490.42
2019-01-05T09:22:36.206Z,102506.27
2019-01-05T09:25:50.256Z,102490.52
2019-01-05T09:28:59.069Z,102505.48
2019-01-05T09:31:40.843Z,102492.86
2019-01-05T09:34:25.880Z,102497.59
2019-01-05T09:37:36.522Z,102497.08
2019-01-05T09:40:21.321Z,102498.00
2019-01-05T09:43:25.045Z,102506.38
2019-01-05T09:46:12.356Z,102500.20
2019-01-05T09:49:15.869Z,102503.72
2019-01-05T09:52:17.523Z,102499.98
2019-01-05T09:55:15.936Z,102497.38
2019-01-05T09:58:20.789Z,102508.81
2019-01-05T10:01:14.591Z,102504.08
2019-01-05T10:04:02.931Z,102504.97
2019-01-05T10:06:38.786Z,102504.48
2019-01-05T10:09:28.316Z,102502.77
2019-01-05T10:12:13.175Z,102494.59
2019-01-05T10:14:58.303Z,102495.63
2019-01-05T10:17:53.485Z,102491.88
2019-01-05T10:20:55.166Z,102495.92
2019-01-05T10:23:56.752Z,102489.55
2019-01-05T10:26:41.856Z,102492.17
2019-01-05T10:29:39.627Z,102492.17
2019-01-05T10:32:35.035Z,102490.77
2019-01-05T10:35:31.905Z,102490.26
2019-01-05T10:38:44.656Z,102481.61
2019-01-05T10:41:52.558Z,102486.51
2019-01-05T10:44:31.491Z,102474.70
2019-01-05T10:47:31.505Z,102468.66
2019-01-05T10:50:31.332Z,102468.23
2019-01-05T10:53:49.336Z,102472.56
2019-01-05T10:56:30.828Z,102467.38
2019-01-05T10:59:32.228Z,102463.00
2019-01-05T11:02:33.455Z,102459.10
2019-01-05T11:05:35.170Z,102453.41
2019-01-05T11:08:36.941Z,102453.77
2019-01-05T11:11:34.401Z,102447.98
2019-01-05T11:14:28.167Z,102453.66
2019-01-05T11:17:22.267Z,102441.95
2019-01-05T11:20:36.595Z,102447.27
2019-01-05T11:23:27.463Z,102442.55
2019-01-05T11:26:26.658Z,102445.66
2019-01-05T11:29:34.719Z,102437.33
2019-01-05T11:32:22.607Z,102437.86
2019-01-05T11:35:21.444Z,102437.78
2019-01-05T11:38:26.066Z,102426.48
2019-01-05T11:41:17.122Z,102426.16
2019-01-05T11:44:22.188Z,102429.19
2019-01-05T11:47:17.897Z,102430.64
2019-01-05T11:50:05.842Z,102416.52
2019-01-05T11:53:07.251Z,102432.27
2019-01-05T11:56:02.658Z,102425.81
2019-01-05T11:59:16.539Z,102428.88
2019-01-05T12:02:19.617Z,102425.30
2019-01-05T12:05:11.905Z,102418.14
2019-01-05T12:08:33.452Z,102414.06
2019-01-05T12:11:43.058Z,102407.36
2019-01-05T12:14:37.254Z,102411.77
2019-01-05T12:17:37.551Z,102411.70
2019-01-05T12:20:42.440Z,102402.22
2019-01-05T12:23:27.437Z,102407.41
2019-01-05T12:26:22.990Z,102409.70
2019-01-05T12:29:13.949Z,102402.74
2019-01-05T12:32:08.022Z,102406.27
2019-01-05T12:35:15.895Z,102407.95
2019-01-05T12:38:09.989Z,102405.86
2019-01-05T12:41:14.481Z,102407.17
2019-01-05T12:43:59.741Z,102406.72
2019-01-05T12:46:52.151Z,102414.19
2019-01-05T12:49:40.196Z,102415.55
2019-01-05T12:52:49.622Z,102415.55
2019-01-05T12:55:40.877Z,102405.47
2019-01-05T12:58:42.217Z,102413.22
2019-01-05T13:01:30.692Z,102411.44
2019-01-05T13:04:32.651Z,102408.02
2019-01-05T13:07:24.869Z,102419.91
2019-01-05T13:10:20.479Z,102411.33
2019-01-05T13:13:11.516Z,102409.75
2019-01-05T13:16:08.574Z,102415.81
2019-01-05T13:18:58.054Z,102412.36
2019-01-05T13:21:56.298Z,102409.83
2019-01-05T13:24:57.915Z,102413.28
2019-01-05T13:27:45.865Z,102406.58
2019-01-05T13:30:46.120Z,102407.98
2019-01-05T13:33:51.019Z,102402.02
2019-01-05T13:37:15.676Z,102407.58
2019-01-05T13:40:13.037Z,102404.48
2019-01-05T13:43:14.108Z,102405.78
2019-01-05T13:46:15.888Z,102405.44
2019-01-05T13:49:28.068Z,102410.47
2019-01-05T13:52:18.664Z,102417.98
2019-01-05T13:54:51.772Z,102402.08
2019-01-05T13:57:24.312Z,102414.44
2019-01-05T13:59:54.404Z,102409.19
2019-01-05T14:02:40.757Z,102411.98
2019-01-05T14:05:16.300Z,102406.90
2019-01-05T14:08:02.609Z,102406.56
2019-01-05T14:10:57.791Z,102413.58
2019-01-05T14:13:44.233Z,102410.99
2019-01-05T14:16:14.299Z,102410.76
2019-01-05T14:18:47.386Z,102418.25
2019-01-05T14:21:17.456Z,102425.88
2019-01-05T14:24:04.206Z,102420.66
2019-01-05T14:26:36.768Z,102434.85
2019-01-05T14:29:13.107Z,102423.08
2019-01-05T14:31:58.231Z,102433.50
2019-01-05T14:34:34.247Z,102437.33
2019-01-05T14:37:04.503Z,102450.34
2019-01-05T14:39:51.068Z,102439.86
2019-01-05T14:42:37.330Z,102457.69
2019-01-05T14:45:18.395Z,102449.81
2019-01-05T14:48:03.698Z,102461.06
2019-01-05T14:50:33.813Z,102454.06
2019-01-05T14:53:09.498Z,102460.11
2019-01-05T14:55:39.534Z,102467.84
2019-01-05T14:58:18.922Z,102462.12
2019-01-05T15:00:51.901Z,102465.17
2019-01-05T15:03:38.440Z,102467.05
2019-01-05T15:06:20.222Z,102463.76
2019-01-05T15:09:06.325Z,102471.42
2019-01-05T15:11:42.438Z,102474.09
2019-01-05T15:14:18.041Z,102480.67
2019-01-05T15:17:04.051Z,102477.54
2019-01-05T15:19:39.989Z,102479.61
2019-01-05T15:22:12.789Z,102480.70
2019-01-05T15:24:45.619Z,102478.44
2019-01-05T15:27:31.887Z,102472.52
2019-01-05T15:30:18.279Z,102472.91
2019-01-05T15:32:48.474Z,102468.17
2019-01-05T15:35:21.297Z,102473.69
2019-01-05T15:37:51.467Z,102474.33
2019-01-05T15:40:33.519Z,102478.30
2019-01-05T15:43:19.758Z,102474.80
2019-01-05T15:45:52.260Z,102479.93
2019-01-05T15:48:37.290Z,102479.52
2019-01-05T15:51:16.082Z,102473.50
2019-01-05T15:53:52.418Z,102479.91
2019-01-05T15:56:38.919Z,102479.67
2019-01-05T15:59:21.054Z,102481.41
2019-01-05T16:01:51.157Z,102485.92
2019-01-05T16:04:36.346Z,102487.13
2019-01-05T16:07:06.426Z,102488.77
2019-01-05T16:09:36.593Z,102488.88
2019-01-05T16:12:09.086Z,102490.26
2019-01-05T16:14:41.589Z,102487.60
2019-01-05T16:17:11.647Z,102499.77
2019-01-05T16:19:41.785Z,102501.63
2019-01-05T16:22:28.656Z,102501.96
2019-01-05T16:24:58.729Z,102505.41
2019-01-05T16:27:31.714Z,102497.73
2019-01-05T16:30:04.264Z,102509.98
2019-01-05T16:32:34.316Z,102495.21
2019-01-05T16:35:07.117Z,102500.87
2019-01-05T16:37:53.606Z,102496.20
2019-01-05T16:40:40.338Z,102500.23
2019-01-05T16:43:16.416Z,102499.17
2019-01-05T16:45:49.359Z,102496.00
2019-01-05T16:48:37.771Z,102497.30
2019-01-05T16:51:22.940Z,102495.13
2019-01-05T16:53:59.165Z,102502.04
2019-01-05T16:56:45.609Z,102509.00
2019-01-05T16:59:30.947Z,102502.95
2019-01-05T17:02:01.076Z,102505.02
2019-01-05T17:04:36.945Z,102509.23
2019-01-05T17:07:23.358Z,102510.88
2019-01-05T17:09:53.486Z,102511.31
2019-01-05T17:12:40.104Z,102510.85
2019-01-05T17:15:10.224Z,102515.59
2019-01-05T17:17:46.324Z,102515.91
2019-01-05T17:20:28.032Z,102512.03
2019-01-05T17:23:14.015Z,102516.38
2019-01-05T17:26:02.386Z,102518.22
2019-01-05T17:28:47.592Z,102516.89
2019-01-05T17:31:33.663Z,102506.30
2019-01-05T17:34:18.578Z,102517.67
2019-01-05T17:36:57.731Z,102520.20
2019-01-05T17:39:27.845Z,102523.58
2019-01-05T17:41:57.929Z,102522.80
2019-01-05T17:44:28.149Z,102510.90
2019-01-05T17:47:10.503Z,102515.50
2019-01-05T17:49:40.653Z,102512.38
2019-01-05T17:52:27.070Z,102517.26
2019-01-05T17:55:06.045Z,102516.34
2019-01-05T17:57:52.534Z,102511.66
2019-01-05T18:00:25.394Z,102503.94
2019-01-05T18:03:11.366Z,102506.48
2019-01-05T18:05:41.480Z,102506.02
2019-01-05T18:08:11.553Z,102499.95
2019-01-05T18:10:44.611Z,102508.30
2019-01-05T18:13:14.785Z,102500.12
2019-01-05T18:15:52.392Z,102506.67
2019-01-05T18:18:31.497Z,102504.23
2019-01-05T18:21:14.073Z,102507.08
2019-01-05T18:23:49.362Z,102503.80
2019-01-05T18:26:31.853Z,102507.18
2019-01-05T18:29:10.757Z,102518.08
2019-01-05T18:31:58.682Z,102509.32
2019-01-05T18:34:46.542Z,102505.40
2019-01-05T18:37:25.371Z,102507.42
2019-01-05T18:40:01.159Z,102510.40
2019-01-05T18:42:43.403Z,102507.72
2019-01-05T18:45:29.505Z,102510.02
2019-01-05T18:48:02.329Z,102507.56
2019-01-05T18:50:38.591Z,102509.24
2019-01-05T18:53:25.020Z,102511.06
2019-01-05T18:56:07.095Z,102511.92
2019-01-05T18:58:53.424Z,102515.42
2019-01-05T19:01:23.527Z,102513.73
2019-01-05T19:04:02.631Z,102519.00
2019-01-05T19:06:48.569Z,102517.23
2019-01-05T19:09:35.046Z,102511.08
2019-01-05T19:12:14.421Z,102508.48
2019-01-05T19:14:50.256Z,102509.38
2019-01-05T19:17:23.221Z,102508.08
2019-01-05T19:19:53.360Z,102508.22
2019-01-05T19:22:32.431Z,102509.06
2019-01-05T19:25:18.468Z,102508.98
2019-01-05T19:27:48.565Z,102507.84
2019-01-05T19:30:33.423Z,102508.98
2019-01-05T19:33:12.271Z,102512.95
2019-01-05T19:35:45.682Z,102508.48
2019-01-05T19:38:32.222Z,102508.45
2019-01-05T19:41:17.367Z,102511.58
2019-01-05T19:43:50.413Z,102515.64
2019-01-05T19:46:36.983Z,102511.66
2019-01-05T19:49:12.894Z,102520.30
2019-01-05T19:51:45.886Z,102523.82
2019-01-05T19:54:25.398Z,102518.48
2019-01-05T19:57:13.040Z,102521.54
2019-01-05T19:59:59.088Z,102522.06
2019-01-05T20:02:29.137Z,102529.56
2019-01-05T20:05:15.231Z,102533.98
2019-01-05T20:07:45.309Z,102537.94
2019-01-05T20:10:15.481Z,102536.64
2019-01-05T20:13:01.545Z,102533.08
2019-01-05T20:15:37.495Z,102520.58
2019-01-05T20:18:07.585Z,102525.39
2019-01-05T20:20:37.691Z,102526.13
2019-01-05T20:23:13.347Z,102530.84
2019-01-05T20:25:43.455Z,102533.70
2019-01-05T20:28:25.484Z,102540.89
2019-01-05T20:30:55.680Z,102532.00
2019-01-05T20:33:43.916Z,102533.94
2019-01-05T20:36:19.696Z,102530.73
2019-01-05T20:38:49.765Z,102526.31
2019-01-05T20:41:19.863Z,102536.91
2019-01-05T20:43:49.937Z,102536.16
2019-01-05T20:46:35.441Z,102538.61
2019-01-05T20:49:05.639Z,102538.39
2019-01-05T20:51:51.874Z,102547.11
2019-01-05T20:54:38.053Z,102549.02
2019-01-05T20:57:23.237Z,102548.00
2019-01-05T21:00:15.125Z,102551.50
2019-01-05T21:03:00.343Z,102546.79
2019-01-05T21:05:45.764Z,102547.69
2019-01-05T21:08:15.919Z,102552.89
2019-01-05T21:10:58.427Z,102560.54
2019-01-05T21:13:43.688Z,102560.22
2019-01-05T21:16:32.167Z,102561.14
2019-01-05T21:19:04.680Z,102563.60
2019-01-05T21:21:51.192Z,102566.34
2019-01-05T21:24:37.580Z,102567.12
2019-01-05T21:27:10.414Z,102566.42
2019-01-05T21:29:52.754Z,102557.12
2019-01-05T21:32:39.199Z,102562.23
2019-01-05T21:35:09.436Z,102559.95
2019-01-05T21:37:45.758Z,102557.81
2019-01-05T21:40:24.932Z,102556.17
2019-01-05T21:43:04.066Z,102554.65
2019-01-05T21:45:52.378Z,102555.74
2019-01-05T21:48:39.068Z,102551.96
2019-01-05T21:51:25.087Z,102545.80
2019-01-05T21:54:10.628Z,102540.67
2019-01-05T21:56:56.845Z,102531.42
2019-01-05T21:59:38.875Z,102534.09
2019-01-05T22:02:08.923Z,102537.55
2019-01-05T22:04:50.736Z,102535.79
2019-01-05T22:07:27.102Z,102534.09
2019-01-05T22:10:15.308Z,102529.20
2019-01-05T22:12:45.375Z,102528.97
2019-01-05T22:15:15.596Z,102525.45
2019-01-05T22:17:48.369Z,102527.12
2019-01-05T22:20:18.477Z,102524.09
2019-01-05T22:23:03.633Z,102533.39
2019-01-05T22:25:45.861Z,102536.69
2019-01-05T22:28:27.857Z,102526.63
2019-01-05T22:30:58.008Z,102533.50
2019-01-05T22:33:28.140Z,102523.63
2019-01-05T22:36:14.463Z,102528.54
2019-01-05T22:38:53.584Z,102528.66
2019-01-05T22:41:26.453Z,102527.77
2019-01-05T22:43:59.335Z,102525.54
2019-01-05T22:46:29.472Z,102527.77
2019-01-05T22:48:59.686Z,102533.05
2019-01-05T22:51:41.682Z,102530.67
2019-01-05T22:54:14.189Z,102526.84
2019-01-05T22:56:53.427Z,102527.77
2019-01-05T22:59:23.583Z,102528.20
2019-01-05T23:01:53.679Z,102523.02
2019-01-05T23:04:39.200Z,102523.55
2019-01-05T23:07:17.934Z,102526.06
2019-01-05T23:09:50.868Z,102524.64
2019-01-05T23:12:35.966Z,102525.02
2019-01-05T23:15:09.452Z,102515.46
2019-01-05T23:17:48.870Z,102505.06
2019-01-05T23:20:37.479Z,102511.48
2019-01-05T23:23:25.778Z,102508.13
2019-01-05T23:25:58.832Z,102507.66
2019-01-05T23:28:34.436Z,102502.67
2019-01-05T23:31:13.385Z,102493.05
2019-01-05T23:33:46.179Z,102494.73
2019-01-05T23:36:25.131Z,102477.64
2019-01-05T23:38:57.991Z,102480.99
2019-01-05T23:41:28.059Z,102501.77
2019-01-05T23:44:14.360Z,102506.08
2019-01-05T23:46:44.408Z,102493.46
2019-01-05T23:49:20.415Z,102500.39
2019-01-05T23:51:59.644Z,102505.22
2019-01-05T23:54:29.737Z,102509.34
2019-01-05T23:56:59.873Z,102510.27
2019-01-05T23:59:46.195Z,102522.86
